Time;durP1;ratioP1;P1;durP2;ratioP2;P2;SDS_P1;SDS_P2;PMS_P1;PMS_P2;Temp;Humidity;BMP_temperature;BMP_pressure;BME280_temperature;BME280_humidity;BME280_pressure;Samples;Min_cycle;Max_cycle;Signal;HPM_P1;HPM_P2
2022/08/13 00:01:59;;;;;;;2.60;2.40;;;;;;;;;;5082259;28;20200;-66
2022/08/13 00:04:30;;;;;;;2.50;2.40;;;;;;;;;;5090793;28;20265;-66
2022/08/13 00:09:43;;;;;;;2.67;2.47;;;;;;;;;;5090478;28;20616;-66
2022/08/13 00:15:00;;;;;;;2.85;2.65;;;;;;;;;;5084970;28;20195;-66
2022/08/13 00:17:28;;;;;;;2.97;2.78;;;;;;;;;;5090167;28;20207;-66
2022/08/13 00:19:57;;;;;;;2.65;2.55;;;;;;;;;;5079187;28;20196;-66
2022/08/13 00:22:26;;;;;;;2.90;2.70;;;;;;;;;;5099481;28;20208;-66
2022/08/13 00:24:53;;;;;;;2.78;2.63;;;;;;;;;;5096359;28;20210;-66
2022/08/13 00:27:22;;;;;;;2.70;2.50;;;;;;;;;;5099314;28;20215;-66
2022/08/13 00:29:49;;;;;;;2.80;2.60;;;;;;;;;;5098614;28;20314;-66
2022/08/13 00:32:21;;;;;;;2.97;2.78;;;;;;;;;;5096758;28;20200;-66
2022/08/13 00:34:51;;;;;;;2.80;2.60;;;;;;;;;;5095265;28;20569;-66
2022/08/13 00:37:22;;;;;;;3.33;2.90;;;;;;;;;;5080561;28;20212;-66
2022/08/13 00:39:50;;;;;;;2.70;2.50;;;;;;;;;;5078747;28;20334;-66
2022/08/13 00:42:21;;;;;;;3.00;2.80;;;;;;;;;;5078700;28;20576;-66
2022/08/13 00:44:48;;;;;;;2.78;2.60;;;;;;;;;;5087942;28;20290;-66
2022/08/13 00:50:01;;;;;;;2.88;2.70;;;;;;;;;;5098092;28;20230;-66
2022/08/13 00:52:31;;;;;;;2.95;2.67;;;;;;;;;;5078564;28;20541;-66
2022/08/13 00:55:00;;;;;;;3.40;2.58;;;;;;;;;;5079993;28;20282;-66
2022/08/13 00:57:28;;;;;;;2.58;2.40;;;;;;;;;;5078407;28;20243;-66
2022/08/13 00:59:56;;;;;;;2.80;2.60;;;;;;;;;;5078730;28;20275;-66
2022/08/13 01:02:23;;;;;;;2.80;2.70;;;;;;;;;;5097712;28;20196;-66
2022/08/13 01:04:51;;;;;;;2.60;2.40;;;;;;;;;;5082278;28;20203;-66
2022/08/13 01:07:19;;;;;;;2.80;2.60;;;;;;;;;;5098259;28;20266;-66
2022/08/13 01:09:48;;;;;;;2.92;2.70;;;;;;;;;;5083225;28;20307;-66
2022/08/13 01:12:15;;;;;;;2.60;2.42;;;;;;;;;;5096494;28;20208;-66
2022/08/13 01:14:44;;;;;;;2.67;2.47;;;;;;;;;;5097748;28;20199;-66
2022/08/13 01:17:13;;;;;;;3.75;2.70;;;;;;;;;;5082490;28;20210;-66
2022/08/13 01:19:42;;;;;;;2.55;2.42;;;;;;;;;;5077597;28;20207;-66
2022/08/13 01:22:11;;;;;;;2.47;2.38;;;;;;;;;;5095577;28;20264;-66
2022/08/13 01:24:41;;;;;;;2.90;2.70;;;;;;;;;;5084926;28;20212;-66
2022/08/13 01:27:09;;;;;;;2.95;2.67;;;;;;;;;;5078096;28;20353;-66
2022/08/13 01:29:37;;;;;;;2.70;2.50;;;;;;;;;;5077824;28;20251;-67
2022/08/13 01:32:05;;;;;;;2.90;2.70;;;;;;;;;;5093635;28;20629;-67
2022/08/13 01:34:34;;;;;;;2.75;2.60;;;;;;;;;;5089301;28;20300;-67
2022/08/13 01:37:01;;;;;;;2.63;2.53;;;;;;;;;;5086437;28;20200;-67
2022/08/13 01:39:30;;;;;;;2.72;2.53;;;;;;;;;;5077552;28;20208;-67
2022/08/13 01:41:57;;;;;;;2.85;2.70;;;;;;;;;;5091818;28;20200;-67
2022/08/13 01:44:25;;;;;;;3.03;2.83;;;;;;;;;;5090374;28;20270;-66
2022/08/13 01:52:34;;;;;;;3.00;2.58;;;;;;;;;;5096844;28;20191;-66
2022/08/13 01:55:04;;;;;;;3.63;2.80;;;;;;;;;;5081050;28;20299;-66
2022/08/13 01:57:33;;;;;;;2.85;2.65;;;;;;;;;;5069208;28;20307;-67
2022/08/13 02:00:01;;;;;;;2.70;2.60;;;;;;;;;;5077461;28;20204;-67
2022/08/13 02:02:29;;;;;;;2.83;2.63;;;;;;;;;;5095574;28;20311;-66
2022/08/13 02:04:56;;;;;;;2.78;2.67;;;;;;;;;;5090995;28;20204;-66
2022/08/13 02:07:24;;;;;;;2.80;2.60;;;;;;;;;;5085458;28;20655;-66
2022/08/13 02:09:52;;;;;;;2.70;2.50;;;;;;;;;;5080350;28;20632;-67
2022/08/13 02:12:20;;;;;;;2.70;2.60;;;;;;;;;;5093918;28;20231;-66
2022/08/13 02:14:49;;;;;;;2.88;2.67;;;;;;;;;;5097202;28;20222;-66
2022/08/13 02:17:30;;;;;;;2.70;2.50;;;;;;;;;;5097430;28;20264;-66
2022/08/13 02:19:58;;;;;;;3.05;2.88;;;;;;;;;;5097015;28;20485;-67
2022/08/13 02:22:26;;;;;;;2.80;2.60;;;;;;;;;;5080307;28;20570;-66
2022/08/13 02:24:54;;;;;;;2.78;2.58;;;;;;;;;;5095485;28;20207;-66
2022/08/13 02:27:24;;;;;;;2.88;2.70;;;;;;;;;;5097585;28;20208;-67
2022/08/13 02:29:52;;;;;;;2.90;2.70;;;;;;;;;;5096900;28;20614;-67
2022/08/13 02:32:22;;;;;;;2.63;2.50;;;;;;;;;;5086989;28;20261;-66
2022/08/13 02:34:50;;;;;;;3.50;3.20;;;;;;;;;;5086955;28;20235;-66
2022/08/13 02:37:20;;;;;;;3.00;2.88;;;;;;;;;;5092535;28;20244;-66
2022/08/13 02:39:48;;;;;;;3.10;2.90;;;;;;;;;;5078204;28;20482;-66
2022/08/13 02:42:15;;;;;;;2.67;2.47;;;;;;;;;;5093225;28;20234;-66
2022/08/13 02:44:47;;;;;;;2.80;2.70;;;;;;;;;;5092835;28;20195;-66
2022/08/13 02:47:15;;;;;;;2.90;2.70;;;;;;;;;;5096686;28;20203;-66
2022/08/13 02:49:42;;;;;;;3.03;2.83;;;;;;;;;;5096665;28;20220;-66
2022/08/13 02:52:10;;;;;;;3.00;2.80;;;;;;;;;;5095141;28;20237;-66
2022/08/13 02:54:40;;;;;;;3.08;2.85;;;;;;;;;;5096544;28;20572;-66
2022/08/13 02:57:08;;;;;;;2.90;2.80;;;;;;;;;;5099536;28;20558;-66
2022/08/13 02:59:35;;;;;;;3.17;2.88;;;;;;;;;;5100695;28;20219;-66
2022/08/13 03:02:05;;;;;;;2.70;2.60;;;;;;;;;;5086301;28;20208;-66
2022/08/13 03:04:32;;;;;;;2.80;2.63;;;;;;;;;;5082942;28;20203;-66
2022/08/13 03:07:00;;;;;;;2.85;2.70;;;;;;;;;;5101412;28;20501;-66
2022/08/13 03:09:27;;;;;;;2.75;2.63;;;;;;;;;;5099238;28;20280;-66
2022/08/13 03:11:55;;;;;;;3.00;2.80;;;;;;;;;;5094107;28;20199;-66
2022/08/13 03:14:22;;;;;;;2.50;2.40;;;;;;;;;;5100183;28;20203;-66
2022/08/13 03:16:50;;;;;;;2.65;2.47;;;;;;;;;;5064044;28;20204;-66
2022/08/13 03:19:18;;;;;;;2.90;2.70;;;;;;;;;;5081729;28;20581;-66
2022/08/13 03:21:47;;;;;;;3.08;2.88;;;;;;;;;;5091365;28;20205;-66
2022/08/13 03:24:17;;;;;;;2.80;2.60;;;;;;;;;;5084431;28;20200;-66
2022/08/13 03:26:45;;;;;;;2.80;2.60;;;;;;;;;;5079959;28;20596;-66
2022/08/13 03:29:12;;;;;;;2.55;2.45;;;;;;;;;;5079968;28;20644;-66
2022/08/13 03:31:40;;;;;;;2.72;2.63;;;;;;;;;;5089770;28;20543;-66
2022/08/13 03:34:07;;;;;;;2.88;2.67;;;;;;;;;;5099845;28;20306;-66
2022/08/13 03:36:36;;;;;;;2.83;2.63;;;;;;;;;;5097456;28;20211;-67
2022/08/13 03:39:05;;;;;;;2.70;2.42;;;;;;;;;;5079892;28;20509;-66
2022/08/13 03:41:32;;;;;;;2.75;2.50;;;;;;;;;;5079865;28;20204;-66
2022/08/13 03:43:59;;;;;;;3.10;2.90;;;;;;;;;;5079806;28;20538;-66
2022/08/13 03:46:27;;;;;;;3.00;2.80;;;;;;;;;;5095307;28;20207;-66
2022/08/13 03:48:55;;;;;;;2.88;2.72;;;;;;;;;;5100028;28;20214;-66
2022/08/13 03:51:23;;;;;;;2.90;2.70;;;;;;;;;;5087228;28;20216;-66
2022/08/13 03:53:53;;;;;;;3.13;2.85;;;;;;;;;;5079018;28;20197;-66
2022/08/13 03:56:23;;;;;;;3.15;2.95;;;;;;;;;;5078602;28;20278;-66
2022/08/13 03:58:50;;;;;;;2.45;2.35;;;;;;;;;;5079176;28;20446;-67
2022/08/13 04:01:17;;;;;;;2.78;2.58;;;;;;;;;;5089928;28;20626;-66
2022/08/13 04:03:45;;;;;;;2.90;2.70;;;;;;;;;;5079090;28;20211;-66
2022/08/13 04:06:16;;;;;;;3.20;3.00;;;;;;;;;;5078999;28;20209;-66
2022/08/13 04:08:44;;;;;;;3.00;2.80;;;;;;;;;;5078783;28;20230;-66
2022/08/13 04:11:14;;;;;;;2.80;2.63;;;;;;;;;;5080154;28;20216;-66
2022/08/13 04:13:42;;;;;;;3.22;2.97;;;;;;;;;;5095466;28;20196;-66
2022/08/13 04:16:10;;;;;;;2.80;2.60;;;;;;;;;;5098788;28;20261;-66
2022/08/13 04:18:38;;;;;;;3.03;2.83;;;;;;;;;;5099639;28;20219;-66
2022/08/13 04:21:08;;;;;;;3.00;2.80;;;;;;;;;;5086377;28;20253;-66
2022/08/13 04:23:36;;;;;;;3.33;3.08;;;;;;;;;;5096727;28;20579;-66
2022/08/13 04:26:04;;;;;;;3.28;3.08;;;;;;;;;;5080009;28;20204;-66
2022/08/13 04:28:33;;;;;;;2.90;2.72;;;;;;;;;;5079093;28;20257;-66
2022/08/13 04:31:00;;;;;;;3.83;2.70;;;;;;;;;;5080986;28;20223;-66
2022/08/13 04:33:28;;;;;;;2.95;2.75;;;;;;;;;;5098439;28;20670;-66
2022/08/13 04:35:56;;;;;;;2.90;2.78;;;;;;;;;;5087820;28;20319;-66
2022/08/13 04:38:24;;;;;;;2.80;2.65;;;;;;;;;;5079528;28;20262;-66
2022/08/13 04:40:52;;;;;;;3.30;3.10;;;;;;;;;;5097467;28;20260;-66
2022/08/13 04:43:19;;;;;;;3.03;2.83;;;;;;;;;;5082790;28;20289;-66
2022/08/13 04:45:48;;;;;;;3.58;2.97;;;;;;;;;;5098187;28;20205;-66
2022/08/13 04:48:16;;;;;;;3.28;3.05;;;;;;;;;;5090633;28;20506;-66
2022/08/13 04:50:45;;;;;;;3.13;2.92;;;;;;;;;;5078152;28;20227;-66
2022/08/13 04:53:21;;;;;;;3.10;2.90;;;;;;;;;;5097745;28;20276;-66
2022/08/13 04:55:49;;;;;;;2.90;2.70;;;;;;;;;;5098927;28;20200;-66
2022/08/13 04:58:16;;;;;;;3.20;3.00;;;;;;;;;;5097867;28;20210;-66
2022/08/13 05:00:45;;;;;;;2.85;2.65;;;;;;;;;;5098145;28;20555;-66
2022/08/13 05:03:14;;;;;;;3.33;2.78;;;;;;;;;;5058337;28;20299;-66
2022/08/13 05:05:42;;;;;;;3.00;2.80;;;;;;;;;;5080351;28;20203;-66
2022/08/13 05:08:09;;;;;;;3.10;2.90;;;;;;;;;;5098782;28;20596;-66
2022/08/13 05:10:38;;;;;;;3.05;2.80;;;;;;;;;;5093755;28;20280;-66
2022/08/13 05:13:08;;;;;;;3.08;2.97;;;;;;;;;;5093450;28;20235;-66
2022/08/13 05:15:39;;;;;;;2.70;2.60;;;;;;;;;;5097877;28;20215;-69
2022/08/13 05:18:06;;;;;;;2.92;2.72;;;;;;;;;;5077729;28;20300;-67
2022/08/13 05:20:36;;;;;;;3.10;2.90;;;;;;;;;;5078123;28;20580;-66
2022/08/13 05:23:12;;;;;;;2.97;2.78;;;;;;;;;;5077091;28;20604;-65
2022/08/13 05:25:39;;;;;;;3.10;2.90;;;;;;;;;;5063841;28;20209;-66
2022/08/13 05:28:07;;;;;;;3.10;2.90;;;;;;;;;;5056970;28;20205;-66
2022/08/13 05:30:37;;;;;;;3.10;2.90;;;;;;;;;;5076452;28;20216;-66
2022/08/13 05:33:13;;;;;;;3.47;3.28;;;;;;;;;;5092537;28;20326;-66
2022/08/13 05:35:40;;;;;;;3.08;2.88;;;;;;;;;;5089341;28;20223;-66
2022/08/13 05:38:08;;;;;;;3.70;3.30;;;;;;;;;;5077521;28;20295;-66
2022/08/13 05:40:38;;;;;;;3.17;2.88;;;;;;;;;;5077264;28;20205;-66
2022/08/13 05:43:11;;;;;;;3.05;2.85;;;;;;;;;;5077178;28;20215;-66
2022/08/13 05:45:39;;;;;;;3.08;2.90;;;;;;;;;;5077328;28;20304;-66
2022/08/13 05:48:06;;;;;;;3.10;2.90;;;;;;;;;;5058583;28;20201;-66
2022/08/13 05:50:34;;;;;;;3.30;3.10;;;;;;;;;;5066548;28;20287;-66
2022/08/13 05:53:08;;;;;;;3.38;3.17;;;;;;;;;;5094957;28;20208;-66
2022/08/13 05:55:38;;;;;;;3.10;2.90;;;;;;;;;;5096669;28;20211;-66
2022/08/13 05:58:06;;;;;;;3.30;3.10;;;;;;;;;;5096858;28;20302;-66
2022/08/13 06:03:28;;;;;;;3.28;3.08;;;;;;;;;;5056854;28;20490;-66
2022/08/13 06:05:56;;;;;;;3.33;3.13;;;;;;;;;;5070015;28;20559;-66
2022/08/13 06:08:29;;;;;;;3.28;3.08;;;;;;;;;;5076855;28;20212;-66
2022/08/13 06:10:59;;;;;;;3.25;2.95;;;;;;;;;;5076779;28;20318;-66
2022/08/13 06:13:26;;;;;;;3.28;3.08;;;;;;;;;;5096863;28;20200;-66
2022/08/13 06:15:58;;;;;;;3.42;2.90;;;;;;;;;;5088120;28;20209;-66
2022/08/13 06:18:29;;;;;;;3.22;3.03;;;;;;;;;;5077447;28;20747;-66
2022/08/13 06:20:57;;;;;;;3.50;3.20;;;;;;;;;;5075968;28;20661;-66
2022/08/13 06:23:25;;;;;;;3.15;2.95;;;;;;;;;;5096209;28;20204;-66
2022/08/13 06:25:53;;;;;;;3.53;3.33;;;;;;;;;;5085189;28;20196;-66
2022/08/13 06:28:23;;;;;;;3.42;3.22;;;;;;;;;;5075868;28;20196;-66
2022/08/13 06:30:51;;;;;;;3.53;3.22;;;;;;;;;;5085927;28;20296;-66
2022/08/13 06:33:22;;;;;;;3.50;3.30;;;;;;;;;;5095083;28;20532;-66
2022/08/13 06:35:50;;;;;;;3.22;3.03;;;;;;;;;;5090594;28;20319;-66
2022/08/13 06:38:19;;;;;;;3.35;3.15;;;;;;;;;;5076301;28;20219;-66
2022/08/13 06:40:48;;;;;;;3.45;3.15;;;;;;;;;;5075712;28;20261;-66
2022/08/13 06:43:18;;;;;;;3.42;3.13;;;;;;;;;;5094605;28;20204;-66
2022/08/13 06:45:47;;;;;;;3.70;3.50;;;;;;;;;;5090084;28;20534;-67
2022/08/13 06:48:15;;;;;;;4.20;3.65;;;;;;;;;;5076960;28;20212;-67
2022/08/13 06:50:42;;;;;;;3.67;3.38;;;;;;;;;;5075851;28;20270;-66
2022/08/13 06:53:11;;;;;;;3.50;3.20;;;;;;;;;;5093368;28;20200;-66
2022/08/13 06:55:41;;;;;;;3.97;3.67;;;;;;;;;;5086316;28;20288;-67
2022/08/13 06:58:10;;;;;;;3.78;3.58;;;;;;;;;;5076049;28;20698;-66
2022/08/13 07:00:38;;;;;;;3.50;3.30;;;;;;;;;;5083564;28;20204;-66
2022/08/13 07:03:07;;;;;;;3.67;3.47;;;;;;;;;;5081643;28;20257;-66
2022/08/13 07:05:35;;;;;;;3.60;3.40;;;;;;;;;;5095662;28;20212;-66
2022/08/13 07:08:05;;;;;;;3.30;3.10;;;;;;;;;;5086562;28;20212;-66
2022/08/13 07:10:33;;;;;;;3.97;3.67;;;;;;;;;;5075460;28;20200;-66
2022/08/13 07:13:02;;;;;;;3.40;3.20;;;;;;;;;;5092353;28;20250;-67
2022/08/13 07:15:31;;;;;;;3.50;3.20;;;;;;;;;;5095016;28;20200;-66
2022/08/13 07:17:59;;;;;;;3.30;3.10;;;;;;;;;;5083448;28;20203;-66
2022/08/13 07:20:28;;;;;;;3.55;3.25;;;;;;;;;;5076174;28;20266;-66
2022/08/13 07:22:55;;;;;;;3.47;3.17;;;;;;;;;;5090678;28;20600;-66
2022/08/13 07:25:24;;;;;;;3.38;3.17;;;;;;;;;;5075685;28;20650;-66
2022/08/13 07:27:52;;;;;;;3.17;2.97;;;;;;;;;;5076119;28;20302;-66
2022/08/13 07:30:20;;;;;;;3.10;2.90;;;;;;;;;;5075174;28;20196;-66
2022/08/13 07:32:50;;;;;;;3.90;3.13;;;;;;;;;;5089157;28;20524;-66
2022/08/13 07:35:18;;;;;;;3.03;2.83;;;;;;;;;;5094863;28;20235;-66
2022/08/13 07:37:47;;;;;;;3.20;2.97;;;;;;;;;;5094039;28;20192;-66
2022/08/13 07:40:14;;;;;;;3.50;3.20;;;;;;;;;;5085656;28;20475;-66
2022/08/13 07:42:43;;;;;;;2.95;2.75;;;;;;;;;;5091438;28;20206;-66
2022/08/13 07:45:11;;;;;;;3.22;2.95;;;;;;;;;;5096941;28;20222;-65
2022/08/13 07:47:40;;;;;;;3.42;3.10;;;;;;;;;;5083997;28;20261;-65
2022/08/13 07:50:11;;;;;;;3.45;2.90;;;;;;;;;;5093615;28;20568;-66
2022/08/13 07:52:39;;;;;;;3.08;2.88;;;;;;;;;;5083235;28;20223;-66
2022/08/13 07:55:08;;;;;;;3.05;2.80;;;;;;;;;;5098076;28;20734;-66
2022/08/13 07:57:46;;;;;;;3.65;3.30;;;;;;;;;;5097984;28;20587;-66
2022/08/13 08:00:25;;;;;;;3.25;3.05;;;;;;;;;;5097442;28;20293;-66
2022/08/13 08:02:57;;;;;;;3.40;3.10;;;;;;;;;;5082822;28;20235;-65
2022/08/13 08:05:25;;;;;;;3.70;3.40;;;;;;;;;;5077619;28;20204;-65
2022/08/13 08:07:53;;;;;;;3.53;3.20;;;;;;;;;;5077499;28;20196;-65
2022/08/13 08:10:22;;;;;;;3.42;3.22;;;;;;;;;;5081675;28;20257;-65
2022/08/13 08:12:48;;;;;;;4.15;3.28;;;;;;;;;;5097761;28;20235;-66
2022/08/13 08:15:16;;;;;;;3.28;3.08;;;;;;;;;;5097162;28;20708;-66
2022/08/13 08:17:43;;;;;;;3.42;3.22;;;;;;;;;;5097038;28;20219;-66
2022/08/13 08:20:11;;;;;;;3.55;3.35;;;;;;;;;;5095661;28;20296;-66
2022/08/13 08:22:45;;;;;;;3.58;3.38;;;;;;;;;;5096151;28;20261;-66
2022/08/13 08:25:17;;;;;;;3.75;3.45;;;;;;;;;;5094906;28;20196;-66
2022/08/13 08:27:47;;;;;;;3.20;3.00;;;;;;;;;;5097418;28;20580;-66
2022/08/13 08:30:16;;;;;;;3.45;3.25;;;;;;;;;;5084214;28;20492;-66
2022/08/13 08:32:44;;;;;;;3.70;3.40;;;;;;;;;;5090824;28;20627;-66
2022/08/13 08:35:13;;;;;;;3.85;3.58;;;;;;;;;;5087823;28;20293;-66
2022/08/13 08:43:14;;;;;;;3.38;3.17;;;;;;;;;;5076087;28;20203;-66
2022/08/13 08:45:41;;;;;;;3.72;3.50;;;;;;;;;;5097378;28;20204;-66
2022/08/13 08:48:09;;;;;;;3.70;3.40;;;;;;;;;;5096441;28;20211;-66
2022/08/13 08:50:37;;;;;;;3.35;3.15;;;;;;;;;;5096405;28;20574;-66
2022/08/13 08:53:23;;;;;;;3.35;3.15;;;;;;;;;;5096339;28;20223;-66
2022/08/13 08:55:51;;;;;;;3.20;3.00;;;;;;;;;;5096262;28;20211;-66
2022/08/13 08:58:20;;;;;;;3.55;3.25;;;;;;;;;;5096940;28;20211;-66
2022/08/13 09:00:48;;;;;;;3.20;2.90;;;;;;;;;;5097063;28;20269;-66
2022/08/13 09:03:18;;;;;;;3.22;3.03;;;;;;;;;;5096638;28;20207;-66
2022/08/13 09:05:46;;;;;;;3.45;3.25;;;;;;;;;;5096991;28;20204;-66
2022/08/13 09:08:16;;;;;;;3.60;3.30;;;;;;;;;;5096991;28;20202;-66
2022/08/13 09:10:44;;;;;;;3.25;3.05;;;;;;;;;;5096259;28;20207;-65
2022/08/13 09:13:13;;;;;;;3.40;3.20;;;;;;;;;;5081266;28;20235;-66
2022/08/13 09:15:46;;;;;;;3.88;3.58;;;;;;;;;;5076649;28;20245;-66
2022/08/13 09:18:16;;;;;;;3.63;3.42;;;;;;;;;;5075590;28;20207;-66
2022/08/13 09:20:44;;;;;;;3.70;3.50;;;;;;;;;;5076904;28;20207;-66
2022/08/13 09:23:14;;;;;;;3.40;3.20;;;;;;;;;;5076986;28;20193;-66
2022/08/13 09:25:43;;;;;;;3.83;3.63;;;;;;;;;;5075324;28;20215;-66
2022/08/13 09:28:11;;;;;;;3.90;3.60;;;;;;;;;;5075536;28;20287;-66
2022/08/13 09:30:39;;;;;;;3.60;3.30;;;;;;;;;;5076622;28;20821;-65
2022/08/13 09:33:09;;;;;;;3.78;3.47;;;;;;;;;;5085445;28;20220;-66
2022/08/13 09:35:37;;;;;;;3.67;3.47;;;;;;;;;;5078600;28;20228;-66
2022/08/13 09:38:06;;;;;;;3.33;3.13;;;;;;;;;;5075505;28;20205;-66
2022/08/13 09:40:38;;;;;;;3.58;3.38;;;;;;;;;;5078535;28;20207;-66
2022/08/13 09:43:09;;;;;;;3.47;3.28;;;;;;;;;;5096065;28;20278;-66
2022/08/13 09:45:39;;;;;;;3.80;3.15;;;;;;;;;;5080269;28;20204;-66
2022/08/13 09:48:08;;;;;;;3.22;2.92;;;;;;;;;;5074669;28;20207;-66
2022/08/13 09:50:36;;;;;;;3.60;3.40;;;;;;;;;;5079184;28;20196;-66
2022/08/13 09:53:05;;;;;;;3.33;3.03;;;;;;;;;;5087160;28;20310;-66
2022/08/13 09:55:33;;;;;;;3.80;3.50;;;;;;;;;;5087598;28;20239;-66
2022/08/13 09:58:01;;;;;;;3.50;3.30;;;;;;;;;;5095013;28;20290;-66
2022/08/13 10:00:29;;;;;;;3.67;3.47;;;;;;;;;;5090458;28;20249;-66
2022/08/13 10:02:59;;;;;;;3.90;3.70;;;;;;;;;;5093858;28;20266;-66
2022/08/13 10:05:32;;;;;;;3.88;3.67;;;;;;;;;;5095067;28;20208;-66
2022/08/13 10:08:00;;;;;;;3.85;3.55;;;;;;;;;;5095742;28;20483;-66
2022/08/13 10:10:27;;;;;;;3.90;3.63;;;;;;;;;;5090876;28;20200;-66
2022/08/13 10:12:55;;;;;;;3.97;3.78;;;;;;;;;;5075002;28;20236;-66
2022/08/13 10:15:22;;;;;;;3.50;3.30;;;;;;;;;;5074258;28;20608;-66
2022/08/13 10:17:52;;;;;;;4.35;3.97;;;;;;;;;;5074289;28;20582;-66
2022/08/13 10:20:21;;;;;;;3.50;3.30;;;;;;;;;;5075712;28;20636;-66
2022/08/13 10:22:50;;;;;;;3.80;3.60;;;;;;;;;;5093232;28;20207;-66
2022/08/13 10:25:18;;;;;;;4.15;3.85;;;;;;;;;;5074461;28;20204;-66
2022/08/13 10:27:45;;;;;;;3.67;3.47;;;;;;;;;;5073225;28;20592;-66
2022/08/13 10:30:13;;;;;;;3.65;3.45;;;;;;;;;;5079077;28;20487;-66
2022/08/13 10:32:41;;;;;;;4.45;4.07;;;;;;;;;;5084311;28;20226;-66
2022/08/13 10:35:09;;;;;;;4.05;3.75;;;;;;;;;;5094251;28;20288;-66
2022/08/13 10:37:43;;;;;;;3.83;3.63;;;;;;;;;;5094530;28;20265;-66
2022/08/13 10:40:14;;;;;;;4.15;3.85;;;;;;;;;;5094640;28;20187;-66
2022/08/13 10:42:44;;;;;;;4.07;3.78;;;;;;;;;;5054355;28;20207;-66
2022/08/13 10:45:12;;;;;;;5.35;4.35;;;;;;;;;;5059991;28;20249;-66
2022/08/13 10:47:45;;;;;;;4.30;4.10;;;;;;;;;;5092587;28;20237;-66
2022/08/13 10:50:13;;;;;;;3.92;3.72;;;;;;;;;;5093284;28;20481;-66
2022/08/13 10:52:40;;;;;;;3.92;3.72;;;;;;;;;;5053445;28;20736;-66
2022/08/13 10:55:11;;;;;;;3.95;3.75;;;;;;;;;;5075991;28;20253;-66
2022/08/13 10:57:40;;;;;;;4.65;4.25;;;;;;;;;;5094508;28;20709;-66
2022/08/13 11:00:09;;;;;;;4.07;3.88;;;;;;;;;;5075645;28;20604;-66
2022/08/13 11:02:37;;;;;;;4.30;4.00;;;;;;;;;;5094296;28;20563;-66
2022/08/13 11:05:05;;;;;;;3.63;3.42;;;;;;;;;;5092535;28;20200;-66
2022/08/13 11:07:32;;;;;;;4.00;3.70;;;;;;;;;;5086819;28;20200;-66
2022/08/13 11:10:00;;;;;;;4.38;4.07;;;;;;;;;;5088673;28;20207;-66
2022/08/13 11:12:27;;;;;;;4.10;3.70;;;;;;;;;;5076549;28;20216;-66
2022/08/13 11:14:57;;;;;;;3.80;3.60;;;;;;;;;;5075962;28;20620;-65
2022/08/13 11:17:24;;;;;;;4.30;4.00;;;;;;;;;;5077668;28;20255;-66
2022/08/13 11:19:52;;;;;;;4.45;4.05;;;;;;;;;;5077738;28;20196;-66
2022/08/13 11:22:19;;;;;;;5.97;4.25;;;;;;;;;;5094668;28;20306;-66
2022/08/13 11:24:47;;;;;;;4.63;4.22;;;;;;;;;;5095815;28;20207;-66
2022/08/13 11:27:15;;;;;;;4.72;4.32;;;;;;;;;;5077736;28;20581;-66
2022/08/13 11:29:42;;;;;;;4.07;3.88;;;;;;;;;;5078252;28;20200;-66
2022/08/13 11:32:11;;;;;;;3.90;3.70;;;;;;;;;;5085583;28;20218;-66
2022/08/13 11:34:38;;;;;;;3.85;3.65;;;;;;;;;;5096405;28;20557;-67
2022/08/13 11:37:05;;;;;;;4.10;3.70;;;;;;;;;;5086162;28;20208;-66
2022/08/13 11:39:33;;;;;;;4.15;3.85;;;;;;;;;;5077861;28;20262;-66
2022/08/13 11:42:02;;;;;;;4.20;4.00;;;;;;;;;;5091142;28;20230;-67
2022/08/13 11:44:30;;;;;;;4.32;4.03;;;;;;;;;;5098140;28;20598;-67
2022/08/13 11:46:59;;;;;;;4.28;3.97;;;;;;;;;;5081624;28;20682;-66
2022/08/13 11:49:28;;;;;;;3.80;3.50;;;;;;;;;;5077423;28;20272;-66
2022/08/13 11:51:55;;;;;;;4.57;4.28;;;;;;;;;;5082627;28;20219;-66
2022/08/13 11:54:22;;;;;;;4.28;3.97;;;;;;;;;;5097249;28;20253;-66
2022/08/13 11:56:50;;;;;;;4.45;4.15;;;;;;;;;;5094905;28;20286;-67
2022/08/13 11:59:19;;;;;;;4.45;4.10;;;;;;;;;;5077033;28;20208;-66
2022/08/13 12:01:47;;;;;;;4.80;4.45;;;;;;;;;;5087337;28;20203;-66
2022/08/13 12:04:14;;;;;;;4.68;4.38;;;;;;;;;;5097261;28;20287;-66
2022/08/13 12:06:44;;;;;;;4.45;4.20;;;;;;;;;;5093699;28;20478;-67
2022/08/13 12:09:11;;;;;;;4.70;4.32;;;;;;;;;;5065170;28;20599;-67
2022/08/13 12:11:39;;;;;;;5.03;4.65;;;;;;;;;;5085656;28;20200;-66
2022/08/13 12:14:06;;;;;;;4.85;4.55;;;;;;;;;;5096887;28;20308;-66
2022/08/13 12:16:33;;;;;;;5.10;4.70;;;;;;;;;;5097403;28;20583;-67
2022/08/13 12:19:00;;;;;;;5.00;4.63;;;;;;;;;;5097646;28;20207;-66
2022/08/13 12:21:29;;;;;;;5.30;4.93;;;;;;;;;;5088825;28;20197;-67
2022/08/13 12:23:58;;;;;;;5.45;5.00;;;;;;;;;;5077826;28;20201;-67
2022/08/13 12:26:25;;;;;;;5.30;4.90;;;;;;;;;;5076037;28;20265;-67
2022/08/13 12:28:52;;;;;;;5.40;5.05;;;;;;;;;;5094599;28;20200;-67
2022/08/13 12:31:20;;;;;;;5.93;5.53;;;;;;;;;;5089388;28;20549;-67
2022/08/13 12:33:48;;;;;;;5.32;5.00;;;;;;;;;;5076212;28;20231;-66
2022/08/13 12:36:15;;;;;;;5.00;4.70;;;;;;;;;;5075653;28;20497;-67
2022/08/13 12:38:43;;;;;;;5.38;5.07;;;;;;;;;;5075575;28;20265;-67
2022/08/13 12:41:11;;;;;;;5.63;5.22;;;;;;;;;;5088745;28;20204;-66
2022/08/13 12:43:38;;;;;;;5.22;4.93;;;;;;;;;;5075666;28;20273;-66
2022/08/13 12:46:06;;;;;;;5.60;5.20;;;;;;;;;;5081889;28;20592;-66
2022/08/13 12:48:33;;;;;;;5.53;5.13;;;;;;;;;;5096126;28;20203;-67
2022/08/13 12:51:01;;;;;;;5.60;5.20;;;;;;;;;;5090965;28;20585;-66
2022/08/13 12:53:28;;;;;;;5.55;5.15;;;;;;;;;;5075882;28;20220;-67
2022/08/13 12:55:56;;;;;;;5.57;5.07;;;;;;;;;;5062198;28;20196;-66
2022/08/13 12:58:25;;;;;;;5.28;4.97;;;;;;;;;;5088461;28;20296;-67
2022/08/13 13:00:54;;;;;;;5.68;5.38;;;;;;;;;;5078145;28;20265;-66
2022/08/13 13:03:22;;;;;;;6.43;5.93;;;;;;;;;;5096102;28;20199;-66
2022/08/13 13:05:50;;;;;;;5.68;5.28;;;;;;;;;;5095959;28;20210;-66
2022/08/13 13:08:19;;;;;;;6.40;6.00;;;;;;;;;;5092909;28;20276;-66
2022/08/13 13:10:47;;;;;;;6.07;5.60;;;;;;;;;;5094147;28;20199;-66
2022/08/13 13:13:16;;;;;;;6.25;5.75;;;;;;;;;;5075288;28;20518;-66
2022/08/13 13:15:44;;;;;;;5.75;5.35;;;;;;;;;;5074462;28;20261;-66
2022/08/13 13:18:13;;;;;;;5.80;5.40;;;;;;;;;;5075324;28;20577;-66
2022/08/13 13:20:43;;;;;;;5.90;5.50;;;;;;;;;;5075585;28;20201;-67
2022/08/13 13:23:11;;;;;;;5.80;5.40;;;;;;;;;;5056185;28;20315;-67
2022/08/13 13:25:40;;;;;;;5.80;5.40;;;;;;;;;;5071198;28;20272;-66
2022/08/13 13:28:07;;;;;;;5.68;5.28;;;;;;;;;;5094988;28;20199;-68
2022/08/13 13:30:35;;;;;;;6.10;5.70;;;;;;;;;;5078985;28;20284;-66
2022/08/13 13:33:04;;;;;;;5.97;5.50;;;;;;;;;;5093444;28;20607;-66
2022/08/13 13:35:32;;;;;;;5.82;5.43;;;;;;;;;;5094131;28;20755;-67
2022/08/13 13:38:00;;;;;;;5.85;5.43;;;;;;;;;;5094576;28;20212;-67
2022/08/13 13:40:29;;;;;;;6.15;5.75;;;;;;;;;;5094861;28;20200;-66
2022/08/13 13:42:57;;;;;;;6.38;5.93;;;;;;;;;;5078439;28;20208;-66
2022/08/13 13:45:26;;;;;;;6.38;5.88;;;;;;;;;;5092813;28;20619;-66
2022/08/13 13:47:54;;;;;;;6.68;6.20;;;;;;;;;;5094923;28;20208;-67
2022/08/13 13:50:24;;;;;;;6.85;6.35;;;;;;;;;;5094464;28;20206;-66
2022/08/13 13:52:52;;;;;;;6.28;5.88;;;;;;;;;;5077704;28;20283;-66
2022/08/13 13:55:19;;;;;;;6.90;6.30;;;;;;;;;;5074516;28;20209;-66
2022/08/13 13:57:46;;;;;;;6.75;6.25;;;;;;;;;;5074628;28;20211;-66
2022/08/13 14:00:14;;;;;;;7.30;6.80;;;;;;;;;;5075188;28;20194;-66
2022/08/13 14:02:49;;;;;;;6.38;5.97;;;;;;;;;;5089885;28;20245;-66
2022/08/13 14:05:16;;;;;;;6.88;6.38;;;;;;;;;;5094854;28;20266;-66
2022/08/13 14:07:51;;;;;;;6.55;6.15;;;;;;;;;;5081272;28;20208;-66
2022/08/13 14:10:19;;;;;;;6.53;6.05;;;;;;;;;;5079787;28;20203;-66
2022/08/13 14:12:47;;;;;;;7.65;7.05;;;;;;;;;;5094129;28;20292;-66
2022/08/13 14:15:15;;;;;;;6.80;6.30;;;;;;;;;;5093787;28;20666;-67
2022/08/13 14:17:43;;;;;;;7.40;6.90;;;;;;;;;;5094091;28;20219;-66
2022/08/13 14:20:11;;;;;;;7.55;7.05;;;;;;;;;;5090343;28;20193;-66
2022/08/13 14:22:38;;;;;;;7.20;6.72;;;;;;;;;;5081858;28;20643;-66
2022/08/13 14:25:08;;;;;;;7.85;7.25;;;;;;;;;;5094506;28;20637;-66
2022/08/13 14:27:37;;;;;;;7.45;6.95;;;;;;;;;;5094076;28;20203;-66
2022/08/13 14:30:05;;;;;;;7.88;7.28;;;;;;;;;;5092945;28;20455;-66
2022/08/13 14:32:32;;;;;;;7.85;7.28;;;;;;;;;;5080290;28;20253;-66
2022/08/13 14:35:01;;;;;;;7.22;6.72;;;;;;;;;;5093763;28;20316;-66
2022/08/13 14:37:28;;;;;;;7.70;7.13;;;;;;;;;;5080897;28;20200;-66
2022/08/13 14:39:55;;;;;;;6.65;6.15;;;;;;;;;;5074271;28;20269;-66
2022/08/13 14:42:32;;;;;;;7.28;6.78;;;;;;;;;;5073688;28;20203;-66
2022/08/13 14:47:50;;;;;;;7.15;6.65;;;;;;;;;;5062279;28;20203;-66
2022/08/13 14:50:18;;;;;;;6.93;6.43;;;;;;;;;;5063879;28;20232;-66
2022/08/13 14:52:46;;;;;;;6.90;6.40;;;;;;;;;;5078489;28;20269;-66
2022/08/13 14:55:14;;;;;;;7.00;6.50;;;;;;;;;;5082372;28;20211;-66
2022/08/13 14:57:43;;;;;;;7.40;6.82;;;;;;;;;;5098541;28;20583;-66
2022/08/13 15:00:12;;;;;;;6.63;6.22;;;;;;;;;;5095025;28;20196;-67
2022/08/13 15:02:40;;;;;;;7.07;6.57;;;;;;;;;;5085712;28;20207;-67
2022/08/13 15:05:08;;;;;;;6.55;6.07;;;;;;;;;;5078320;28;20599;-67
2022/08/13 15:07:37;;;;;;;7.20;6.70;;;;;;;;;;5078148;28;20711;-67
2022/08/13 15:10:07;;;;;;;6.97;6.47;;;;;;;;;;5079781;28;20203;-66
2022/08/13 15:12:34;;;;;;;6.60;6.20;;;;;;;;;;5089964;28;20212;-66
2022/08/13 15:15:03;;;;;;;6.57;6.15;;;;;;;;;;5098002;28;20226;-66
2022/08/13 15:17:30;;;;;;;6.40;5.93;;;;;;;;;;5098080;28;20253;-66